Time;durP1;ratioP1;P1;durP2;ratioP2;P2;SDS_P1;SDS_P2;PMS_P1;PMS_P2;Temp;Humidity;BMP_temperature;BMP_pressure;BME280_temperature;BME280_humidity;BME280_pressure;Samples;Min_cycle;Max_cycle;Signal;HPM_P1;HPM_P2
2022/08/18 00:00:10;;;;;;;5.45;4.53;;;;;;;;;;5049734;28;20471;-60
2022/08/18 00:05:45;;;;;;;9.60;5.35;;;;;;;;;;5051188;28;20057;-60
2022/08/18 00:08:14;;;;;;;6.53;4.93;;;;;;;;;;5052839;28;20020;-60
2022/08/18 00:10:52;;;;;;;4.53;3.90;;;;;;;;;;5051890;28;20108;-60
2022/08/18 00:13:43;;;;;;;6.55;5.18;;;;;;;;;;5067918;28;20387;-60
2022/08/18 00:16:57;;;;;;;5.80;5.18;;;;;;;;;;5052920;28;20021;-60
2022/08/18 00:19:32;;;;;;;7.03;5.65;;;;;;;;;;5069054;28;20031;-60
2022/08/18 00:22:07;;;;;;;5.28;4.75;;;;;;;;;;5054531;28;20489;-60
2022/08/18 00:24:37;;;;;;;11.88;4.78;;;;;;;;;;5038255;28;20061;-60
2022/08/18 00:27:04;;;;;;;5.37;4.13;;;;;;;;;;5030544;28;20017;-60
2022/08/18 00:32:24;;;;;;;7.93;4.37;;;;;;;;;;5052420;28;20086;-60
2022/08/18 00:34:50;;;;;;;8.10;5.25;;;;;;;;;;5051943;28;20252;-60
2022/08/18 00:40:22;;;;;;;8.20;5.03;;;;;;;;;;5053816;28;20395;-60
2022/08/18 00:42:55;;;;;;;6.03;4.63;;;;;;;;;;5056165;28;20025;-60
2022/08/18 00:45:27;;;;;;;4.55;4.13;;;;;;;;;;5055635;28;20439;-60
2022/08/18 00:47:59;;;;;;;4.72;4.32;;;;;;;;;;5056300;28;20300;-60
2022/08/18 00:50:43;;;;;;;13.77;4.30;;;;;;;;;;5069773;28;20033;-60
2022/08/18 00:56:25;;;;;;;4.97;4.45;;;;;;;;;;5055661;28;20461;-60
2022/08/18 00:59:03;;;;;;;6.43;4.75;;;;;;;;;;5055548;28;20025;-60
2022/08/18 01:01:44;;;;;;;4.97;4.10;;;;;;;;;;5071292;28;20025;-60
2022/08/18 01:04:29;;;;;;;5.03;4.43;;;;;;;;;;5054243;28;20049;-60
2022/08/18 01:07:01;;;;;;;6.25;4.45;;;;;;;;;;5055400;28;20370;-60
2022/08/18 01:09:33;;;;;;;4.30;3.90;;;;;;;;;;5054781;28;20051;-60
2022/08/18 01:12:01;;;;;;;4.47;3.92;;;;;;;;;;5055134;28;20103;-60
2022/08/18 01:23:03;;;;;;;4.20;3.80;;;;;;;;;;5034358;28;20040;-60
2022/08/18 01:28:52;;;;;;;5.50;4.60;;;;;;;;;;5055055;28;20059;-60
2022/08/18 01:31:54;;;;;;;5.72;5.03;;;;;;;;;;5053496;28;20036;-60
2022/08/18 01:34:24;;;;;;;4.70;4.03;;;;;;;;;;5053148;28;20069;-60
2022/08/18 01:37:00;;;;;;;6.60;4.90;;;;;;;;;;5054616;28;20033;-60
2022/08/18 01:39:47;;;;;;;5.35;4.85;;;;;;;;;;5052590;28;20554;-60
2022/08/18 01:42:25;;;;;;;5.18;4.03;;;;;;;;;;5055256;28;20041;-60
2022/08/18 01:44:56;;;;;;;5.53;4.40;;;;;;;;;;5052521;28;20032;-60
2022/08/18 01:47:30;;;;;;;5.43;4.13;;;;;;;;;;5052852;28;20032;-60
2022/08/18 01:50:07;;;;;;;5.72;4.78;;;;;;;;;;5049680;28;20033;-60
2022/08/18 01:52:44;;;;;;;5.60;4.78;;;;;;;;;;5054519;28;20025;-60
2022/08/18 01:55:28;;;;;;;4.40;3.83;;;;;;;;;;5053281;28;20029;-60
2022/08/18 01:58:26;;;;;;;5.43;4.13;;;;;;;;;;5053050;28;20041;-60
2022/08/18 02:01:05;;;;;;;6.53;5.05;;;;;;;;;;5053592;28;20132;-60
2022/08/18 02:03:36;;;;;;;5.72;5.03;;;;;;;;;;5055363;28;20120;-60
2022/08/18 02:06:13;;;;;;;5.43;4.47;;;;;;;;;;5054659;28;20021;-60
2022/08/18 02:09:06;;;;;;;5.80;5.20;;;;;;;;;;5055350;28;20534;-60
2022/08/18 02:11:52;;;;;;;5.53;4.93;;;;;;;;;;5055444;28;20029;-60
2022/08/18 02:14:32;;;;;;;6.93;5.78;;;;;;;;;;5056164;28;20037;-60
2022/08/18 02:20:30;;;;;;;7.13;5.10;;;;;;;;;;5054329;28;20040;-60
2022/08/18 02:23:10;;;;;;;6.05;5.00;;;;;;;;;;5069898;28;20106;-60
2022/08/18 02:25:46;;;;;;;5.97;4.93;;;;;;;;;;5053861;28;20013;-60
2022/08/18 02:28:38;;;;;;;6.32;5.35;;;;;;;;;;5054310;28;20327;-60
2022/08/18 02:31:10;;;;;;;5.35;4.85;;;;;;;;;;5052538;28;20424;-60
2022/08/18 02:33:45;;;;;;;6.53;4.95;;;;;;;;;;5052727;28;20037;-60
2022/08/18 02:36:21;;;;;;;5.35;4.88;;;;;;;;;;5053841;28;20017;-60
2022/08/18 02:38:49;;;;;;;6.78;5.28;;;;;;;;;;5053883;28;20029;-60
2022/08/18 02:41:27;;;;;;;5.82;5.22;;;;;;;;;;5053543;28;20094;-60
2022/08/18 02:44:03;;;;;;;5.40;4.43;;;;;;;;;;5069610;28;20021;-60
2022/08/18 02:46:34;;;;;;;5.90;5.18;;;;;;;;;;5069856;28;20501;-60
2022/08/18 02:49:08;;;;;;;5.47;4.28;;;;;;;;;;5052267;28;20117;-60
2022/08/18 02:52:03;;;;;;;6.75;4.55;;;;;;;;;;5053809;28;20061;-60
2022/08/18 02:54:53;;;;;;;8.45;4.45;;;;;;;;;;5053921;28;20032;-60
2022/08/18 02:57:48;;;;;;;6.22;4.68;;;;;;;;;;5068832;28;20525;-60
2022/08/18 03:00:19;;;;;;;4.63;4.00;;;;;;;;;;5052800;28;20462;-60
2022/08/18 03:02:50;;;;;;;;;;;;;;;;;;5050338;28;20033;-60
2022/08/18 03:05:31;;;;;;;5.57;4.22;;;;;;;;;;5052211;28;19916;-60
2022/08/18 03:08:03;;;;;;;5.07;4.53;;;;;;;;;;5053114;28;20021;-60
2022/08/18 03:10:35;;;;;;;6.60;4.60;;;;;;;;;;5052875;28;20028;-60
2022/08/18 03:13:23;;;;;;;5.38;4.13;;;;;;;;;;5049612;28;20049;-60
2022/08/18 03:16:12;;;;;;;4.60;4.18;;;;;;;;;;5052293;28;20021;-60
2022/08/18 03:18:42;;;;;;;5.15;4.25;;;;;;;;;;5052558;28;20025;-60
2022/08/18 03:21:34;;;;;;;4.90;4.40;;;;;;;;;;5053131;28;20055;-60
2022/08/18 03:27:04;;;;;;;5.97;4.53;;;;;;;;;;5053263;28;20045;-60
2022/08/18 03:29:34;;;;;;;5.47;4.68;;;;;;;;;;5052751;28;20052;-60
2022/08/18 03:32:14;;;;;;;7.55;4.68;;;;;;;;;;5043853;28;20021;-60
2022/08/18 03:34:42;;;;;;;5.60;4.95;;;;;;;;;;5052289;28;20482;-60
2022/08/18 03:37:43;;;;;;;5.20;4.53;;;;;;;;;;5051922;28;20036;-60
2022/08/18 03:40:16;;;;;;;5.40;4.60;;;;;;;;;;5050470;28;20025;-60
2022/08/18 03:43:06;;;;;;;9.45;4.93;;;;;;;;;;5052215;28;20379;-60
2022/08/18 03:45:54;;;;;;;7.25;4.43;;;;;;;;;;5048086;28;20025;-60
2022/08/18 03:48:24;;;;;;;8.88;6.07;;;;;;;;;;5049093;28;20037;-60
2022/08/18 03:51:07;;;;;;;6.45;5.05;;;;;;;;;;5049984;28;20036;-60
2022/08/18 03:53:43;;;;;;;4.93;4.32;;;;;;;;;;5051708;28;20040;-60
2022/08/18 03:56:14;;;;;;;5.22;4.35;;;;;;;;;;5051197;28;20009;-60
2022/08/18 03:58:48;;;;;;;6.20;4.85;;;;;;;;;;5051602;28;20058;-60
2022/08/18 04:01:30;;;;;;;5.75;5.15;;;;;;;;;;5047069;28;20218;-60
2022/08/18 04:04:03;;;;;;;5.28;4.78;;;;;;;;;;5047498;28;20078;-60
2022/08/18 04:06:54;;;;;;;;;;;;;;;;;;;;;
2022/08/18 04:09:29;;;;;;;5.50;4.43;;;;;;;;;;5049711;28;20032;-60
2022/08/18 04:12:02;;;;;;;5.50;4.50;;;;;;;;;;5050781;28;20108;-60
2022/08/18 04:14:31;;;;;;;5.28;4.72;;;;;;;;;;5052284;28;20124;-60
2022/08/18 04:17:10;;;;;;;5.43;4.75;;;;;;;;;;5054487;28;20524;-60
2022/08/18 04:19:50;;;;;;;6.15;5.30;;;;;;;;;;5052099;28;20343;-60
2022/08/18 04:22:18;;;;;;;5.22;4.72;;;;;;;;;;5052459;28;20028;-60
2022/08/18 04:24:44;;;;;;;6.20;4.25;;;;;;;;;;5052834;28;20466;-60
2022/08/18 04:27:31;;;;;;;5.28;4.78;;;;;;;;;;5054337;28;20024;-60
2022/08/18 04:30:00;;;;;;;5.43;4.93;;;;;;;;;;5051704;28;20040;-60
2022/08/18 04:32:37;;;;;;;6.15;5.03;;;;;;;;;;5054563;28;20664;-60
2022/08/18 04:35:12;;;;;;;5.00;4.50;;;;;;;;;;5039161;28;20125;-60
2022/08/18 04:37:42;;;;;;;4.95;4.38;;;;;;;;;;5070561;28;20108;-60
2022/08/18 04:40:32;;;;;;;5.95;4.90;;;;;;;;;;5053363;28;20040;-60
2022/08/18 04:43:15;;;;;;;;;;;;;;;;;;;;;
2022/08/18 04:45:45;;;;;;;7.55;4.97;;;;;;;;;;5055966;28;20074;-60
2022/08/18 04:51:32;;;;;;;5.28;4.20;;;;;;;;;;5052596;28;20049;-60
2022/08/18 04:54:07;;;;;;;6.38;5.15;;;;;;;;;;5062013;28;20482;-60
2022/08/18 04:56:54;;;;;;;5.40;4.90;;;;;;;;;;5054423;28;20163;-60
2022/08/18 04:59:39;;;;;;;5.75;4.88;;;;;;;;;;5068239;28;20025;-60
2022/08/18 05:02:10;;;;;;;7.05;5.68;;;;;;;;;;5053462;28;20445;-60
2022/08/18 05:04:57;;;;;;;5.40;4.90;;;;;;;;;;5054330;28;20029;-60
2022/08/18 05:07:56;;;;;;;7.20;5.35;;;;;;;;;;5054461;28;20029;-60
2022/08/18 05:10:33;;;;;;;7.53;5.65;;;;;;;;;;5051749;28;20029;-60
2022/08/18 05:16:23;;;;;;;6.63;5.68;;;;;;;;;;5054484;28;20095;-60
2022/08/18 05:18:55;;;;;;;6.72;5.57;;;;;;;;;;5053863;28;20048;-60
2022/08/18 05:21:25;;;;;;;6.28;5.63;;;;;;;;;;5050959;28;20421;-60
2022/08/18 05:23:57;;;;;;;6.90;5.50;;;;;;;;;;5054140;28;20091;-60
2022/08/18 05:26:39;;;;;;;5.70;5.15;;;;;;;;;;5051266;28;20045;-60
2022/08/18 05:29:11;;;;;;;6.95;6.07;;;;;;;;;;5051881;28;20029;-60
2022/08/18 05:32:02;;;;;;;;;;;;;;;;;;;;;
2022/08/18 05:34:40;;;;;;;;;;;;;;;;;;5033796;28;20042;-60
2022/08/18 05:37:25;;;;;;;6.15;5.53;;;;;;;;;;5065463;28;20339;-60
2022/08/18 05:40:01;;;;;;;6.07;5.38;;;;;;;;;;5052144;28;20017;-60
2022/08/18 05:42:40;;;;;;;8.70;5.63;;;;;;;;;;5053640;28;20115;-60
2022/08/18 05:45:38;;;;;;;6.50;5.87;;;;;;;;;;5053367;28;20028;-60
2022/08/18 05:48:23;;;;;;;7.03;5.53;;;;;;;;;;5052358;28;20041;-60
2022/08/18 05:50:59;;;;;;;7.70;4.88;;;;;;;;;;5051268;28;20037;-59
2022/08/18 06:02:27;;;;;;;5.47;4.97;;;;;;;;;;5049581;28;20060;-60
2022/08/18 06:05:06;;;;;;;5.63;5.00;;;;;;;;;;5053216;28;20029;-59
2022/08/18 06:07:45;;;;;;;5.70;5.17;;;;;;;;;;5053537;28;20028;-60
2022/08/18 06:10:14;;;;;;;5.75;4.80;;;;;;;;;;5049459;28;20740;-60
2022/08/18 06:13:12;;;;;;;6.80;4.72;;;;;;;;;;5067966;28;20119;-60
2022/08/18 06:15:58;;;;;;;5.63;4.55;;;;;;;;;;5066719;28;20052;-60
2022/08/18 06:18:47;;;;;;;5.95;5.30;;;;;;;;;;5053261;28;20031;-59
2022/08/18 06:21:35;;;;;;;5.60;5.03;;;;;;;;;;5045093;28;20036;-60
2022/08/18 06:24:15;;;;;;;4.78;4.00;;;;;;;;;;5033777;28;20546;-60
2022/08/18 06:27:01;;;;;;;6.82;4.95;;;;;;;;;;5046475;28;20110;-60
2022/08/18 06:29:39;;;;;;;5.25;4.75;;;;;;;;;;5045183;28;20021;-60
2022/08/18 06:32:20;;;;;;;6.40;5.18;;;;;;;;;;5048396;28;20112;-59
2022/08/18 06:35:08;;;;;;;5.82;5.22;;;;;;;;;;5052941;28;20111;-59
2022/08/18 06:40:39;;;;;;;6.85;5.70;;;;;;;;;;5035190;28;20035;-60
2022/08/18 06:43:18;;;;;;;6.40;5.78;;;;;;;;;;5050515;28;20024;-60
2022/08/18 06:46:19;;;;;;;6.18;5.68;;;;;;;;;;5050783;28;20326;-60
2022/08/18 06:49:11;;;;;;;6.55;5.32;;;;;;;;;;5048317;28;20041;-60
2022/08/18 06:51:44;;;;;;;10.25;5.85;;;;;;;;;;5018647;28;20442;-60
2022/08/18 06:54:28;;;;;;;5.85;5.18;;;;;;;;;;5052108;28;20032;-60
2022/08/18 06:57:16;;;;;;;6.32;5.10;;;;;;;;;;5060984;28;20046;-60
2022/08/18 06:59:59;;;;;;;6.28;5.60;;;;;;;;;;5050180;28;20433;-60
2022/08/18 07:02:44;;;;;;;5.40;4.90;;;;;;;;;;5046296;28;20458;-59
2022/08/18 07:05:25;;;;;;;5.85;5.25;;;;;;;;;;5049491;28;20033;-60
2022/08/18 07:08:20;;;;;;;7.38;6.05;;;;;;;;;;5044535;28;20498;-60
2022/08/18 07:10:56;;;;;;;6.10;5.43;;;;;;;;;;5047635;28;20013;-59
2022/08/18 07:13:30;;;;;;;5.88;5.25;;;;;;;;;;5049575;28;20033;-60
2022/08/18 07:16:15;;;;;;;5.97;4.80;;;;;;;;;;5041332;28;20025;-60
2022/08/18 07:19:02;;;;;;;6.03;5.43;;;;;;;;;;5050068;28;20104;-60
2022/08/18 07:21:48;;;;;;;10.00;6.57;;;;;;;;;;5058462;28;20182;-60
2022/08/18 07:24:38;;;;;;;7.80;6.75;;;;;;;;;;5047933;28;20441;-60
2022/08/18 07:27:17;;;;;;;9.50;6.63;;;;;;;;;;5046025;28;20435;-59
2022/08/18 07:30:04;;;;;;;8.85;7.88;;;;;;;;;;5047188;28;20136;-59
2022/08/18 07:32:56;;;;;;;7.68;6.93;;;;;;;;;;5048485;28;20392;-60
2022/08/18 07:36:05;;;;;;;;;;;;;;;;;;;;;
2022/08/18 07:38:52;;;;;;;6.90;5.85;;;;;;;;;;5045517;28;20033;-59
2022/08/18 07:41:31;;;;;;;6.82;6.15;;;;;;;;;;5044485;28;20029;-60
2022/08/18 07:44:22;;;;;;;8.70;7.23;;;;;;;;;;5045967;28;20044;-60
2022/08/18 07:47:09;;;;;;;;;;;;;;;;;;;;;
2022/08/18 07:49:57;;;;;;;7.60;6.15;;;;;;;;;;5035809;28;20047;-58
2022/08/18 07:52:59;;;;;;;;;;;;;;;;;;;;;
2022/08/18 07:55:58;;;;;;;8.52;6.72;;;;;;;;;;5046967;28;20051;-59
2022/08/18 07:58:42;;;;;;;12.65;6.63;;;;;;;;;;5046667;28;20017;-58
2022/08/18 08:01:15;;;;;;;6.97;6.10;;;;;;;;;;5038437;28;20060;-59
2022/08/18 08:04:07;;;;;;;7.20;6.03;;;;;;;;;;5042337;28;20033;-59
2022/08/18 08:06:52;;;;;;;7.38;6.60;;;;;;;;;;5047632;28;20036;-59
2022/08/18 08:09:37;;;;;;;8.63;6.07;;;;;;;;;;5044918;28;20037;-58
2022/08/18 08:12:26;;;;;;;8.85;7.95;;;;;;;;;;5050022;28;20083;-59
2022/08/18 08:15:16;;;;;;;7.75;6.13;;;;;;;;;;5046778;28;20041;-59
2022/08/18 08:18:16;;;;;;;8.30;7.38;;;;;;;;;;5052411;28;20065;-58
2022/08/18 08:21:05;;;;;;;8.25;6.85;;;;;;;;;;5046964;28;20116;-58
2022/08/18 08:23:46;;;;;;;9.73;6.50;;;;;;;;;;5050014;28;20083;-58
2022/08/18 08:26:38;;;;;;;6.93;6.15;;;;;;;;;;5046582;28;20040;-59
2022/08/18 08:29:25;;;;;;;6.80;6.10;;;;;;;;;;5046435;28;20515;-58
2022/08/18 08:32:12;;;;;;;7.85;6.95;;;;;;;;;;5047335;28;20524;-58
2022/08/18 08:34:59;;;;;;;7.80;7.00;;;;;;;;;;5048355;28;20029;-58
2022/08/18 08:37:49;;;;;;;9.15;6.78;;;;;;;;;;5048717;28;20128;-59
2022/08/18 08:40:42;;;;;;;;;;;;;;;;;;;;;
2022/08/18 08:43:18;;;;;;;9.32;7.80;;;;;;;;;;5048887;28;20483;-59
2022/08/18 08:46:04;;;;;;;8.27;6.95;;;;;;;;;;5047269;28;20086;-58
2022/08/18 08:48:41;;;;;;;8.68;6.80;;;;;;;;;;5048092;28;20037;-58
2022/08/18 08:51:13;;;;;;;7.40;6.53;;;;;;;;;;5046325;28;20483;-58
2022/08/18 08:57:02;;;;;;;7.53;6.72;;;;;;;;;;5047323;28;20037;-58
2022/08/18 08:59:45;;;;;;;12.23;7.45;;;;;;;;;;5044312;28;20033;-58
2022/08/18 09:02:24;;;;;;;7.75;6.97;;;;;;;;;;5047723;28;20039;-59
2022/08/18 09:04:52;;;;;;;7.80;7.03;;;;;;;;;;5053965;28;20755;-59
2022/08/18 09:07:28;;;;;;;10.50;7.50;;;;;;;;;;5048645;28;20467;-59
2022/08/18 09:10:09;;;;;;;11.50;7.75;;;;;;;;;;5049436;28;20497;-59
2022/08/18 09:13:08;;;;;;;;;;;;;;;;;;;;;
2022/08/18 09:15:49;;;;;;;9.77;7.28;;;;;;;;;;5049920;28;20039;-58
2022/08/18 09:18:28;;;;;;;8.27;6.13;;;;;;;;;;5051630;28;20025;-59
2022/08/18 09:20:57;;;;;;;7.47;6.68;;;;;;;;;;5050608;28;20029;-58
2022/08/18 09:23:35;;;;;;;9.48;7.25;;;;;;;;;;5051708;28;20056;-58
2022/08/18 09:26:24;;;;;;;11.23;7.15;;;;;;;;;;5062149;28;20108;-59
2022/08/18 09:29:22;;;;;;;7.18;6.47;;;;;;;;;;5052235;28;20069;-58
2022/08/18 09:31:49;;;;;;;8.40;7.40;;;;;;;;;;5049501;28;20050;-58
2022/08/18 09:34:20;;;;;;;9.77;8.18;;;;;;;;;;5048564;28;20033;-58
2022/08/18 09:37:10;;;;;;;8.88;8.00;;;;;;;;;;5049998;28;20400;-58
2022/08/18 09:42:36;;;;;;;8.00;7.22;;;;;;;;;;5050882;28;20072;-58
2022/08/18 09:45:20;;;;;;;13.83;7.73;;;;;;;;;;5040402;28;20037;-58
2022/08/18 09:51:08;;;;;;;7.97;6.32;;;;;;;;;;5050010;28;20031;-59
2022/08/18 09:53:37;;;;;;;7.70;6.70;;;;;;;;;;5051677;28;20072;-59
2022/08/18 09:56:15;;;;;;;7.32;6.35;;;;;;;;;;5050907;28;20016;-59
2022/08/18 09:58:52;;;;;;;5.97;5.35;;;;;;;;;;5042628;28;20490;-59
2022/08/18 10:01:21;;;;;;;8.82;7.07;;;;;;;;;;5046266;28;20024;-59
2022/08/18 10:04:09;;;;;;;6.93;6.22;;;;;;;;;;5043578;28;20029;-59
2022/08/18 10:06:45;;;;;;;6.47;5.45;;;;;;;;;;5047452;28;20055;-60
2022/08/18 10:09:43;;;;;;;9.15;7.35;;;;;;;;;;5046174;28;20029;-59
2022/08/18 10:12:08;;;;;;;9.15;7.28;;;;;;;;;;5051030;28;20071;-59
2022/08/18 10:15:01;;;;;;;7.55;6.50;;;;;;;;;;5049770;28;20025;-60
2022/08/18 10:17:49;;;;;;;8.65;7.70;;;;;;;;;;5048918;28;20025;-59
2022/08/18 10:20:39;;;;;;;7.50;6.38;;;;;;;;;;5042931;28;20025;-59
2022/08/18 10:23:12;;;;;;;7.82;7.10;;;;;;;;;;5048285;28;20036;-60
2022/08/18 10:25:47;;;;;;;8.52;7.05;;;;;;;;;;5051085;28;20605;-59
2022/08/18 10:28:33;;;;;;;7.85;6.90;;;;;;;;;;5050771;28;20025;-59
2022/08/18 10:31:01;;;;;;;8.32;7.43;;;;;;;;;;5047503;28;20040;-58
2022/08/18 10:33:48;;;;;;;7.47;6.18;;;;;;;;;;5050175;28;20107;-59
2022/08/18 10:36:36;;;;;;;8.32;7.53;;;;;;;;;;5044064;28;20060;-59
2022/08/18 10:39:06;;;;;;;11.73;7.32;;;;;;;;;;5029511;28;20041;-59
2022/08/18 10:42:01;;;;;;;10.95;7.53;;;;;;;;;;5039871;28;20037;-59
2022/08/18 10:44:29;;;;;;;7.55;6.85;;;;;;;;;;5050799;28;20051;-59
2022/08/18 10:47:06;;;;;;;7.93;6.88;;;;;;;;;;5050637;28;20021;-59
2022/08/18 10:49:37;;;;;;;8.27;7.45;;;;;;;;;;5050363;28;20075;-59
2022/08/18 10:52:12;;;;;;;8.20;7.32;;;;;;;;;;5048750;28;20119;-59
2022/08/18 10:55:00;;;;;;;8.02;6.70;;;;;;;;;;5048334;28;20029;-59
2022/08/18 10:57:51;;;;;;;7.43;6.60;;;;;;;;;;5049390;28;20378;-59
2022/08/18 11:00:22;;;;;;;9.65;7.43;;;;;;;;;;5048157;28;20113;-59
2022/08/18 11:03:08;;;;;;;7.85;6.20;;;;;;;;;;5047545;28;20037;-58
2022/08/18 11:06:00;;;;;;;7.85;7.15;;;;;;;;;;5053682;28;20037;-58
2022/08/18 11:08:26;;;;;;;7.75;6.95;;;;;;;;;;5047594;28;20517;-58
2022/08/18 11:14:12;;;;;;;6.90;5.72;;;;;;;;;;5048143;28;20521;-58
2022/08/18 11:16:55;;;;;;;7.15;6.35;;;;;;;;;;5051100;28;20078;-58
2022/08/18 11:19:42;;;;;;;7.72;6.93;;;;;;;;;;5049105;28;20055;-58
2022/08/18 11:22:25;;;;;;;6.32;5.72;;;;;;;;;;5045166;28;20037;-58
2022/08/18 11:25:00;;;;;;;6.38;5.78;;;;;;;;;;5049910;28;20116;-58
2022/08/18 11:27:34;;;;;;;7.32;6.60;;;;;;;;;;5049429;28;20405;-58
2022/08/18 11:30:07;;;;;;;6.82;6.22;;;;;;;;;;5039560;28;20017;-58
2022/08/18 11:32:36;;;;;;;6.55;5.95;;;;;;;;;;5050045;28;20463;-58
2022/08/18 11:35:05;;;;;;;8.93;7.32;;;;;;;;;;5047062;28;20032;-58
2022/08/18 11:37:50;;;;;;;7.40;6.57;;;;;;;;;;5045721;28;20044;-58
2022/08/18 11:40:32;;;;;;;9.13;7.55;;;;;;;;;;5041833;28;20098;-58
2022/08/18 11:43:08;;;;;;;8.35;7.15;;;;;;;;;;5043411;28;20037;-58
2022/08/18 11:45:46;;;;;;;7.72;6.78;;;;;;;;;;5043646;28;20025;-58
2022/08/18 11:48:34;;;;;;;7.45;6.15;;;;;;;;;;5046534;28;20466;-58
2022/08/18 11:51:11;;;;;;;10.18;6.90;;;;;;;;;;5063370;28;20021;-58
2022/08/18 11:53:52;;;;;;;9.32;7.72;;;;;;;;;;5049620;28;20032;-58
2022/08/18 11:56:51;;;;;;;8.93;6.13;;;;;;;;;;5047597;28;20021;-58
2022/08/18 11:59:27;;;;;;;8.02;6.90;;;;;;;;;;5046885;28;20036;-58
2022/08/18 12:01:58;;;;;;;13.15;8.38;;;;;;;;;;5048449;28;20456;-58
2022/08/18 12:04:33;;;;;;;7.22;6.53;;;;;;;;;;5048106;28;20108;-58
2022/08/18 12:07:23;;;;;;;11.25;7.85;;;;;;;;;;5048615;28;20028;-58
2022/08/18 12:10:14;;;;;;;8.90;8.00;;;;;;;;;;5047619;28;20086;-58
2022/08/18 12:12:51;;;;;;;8.27;7.40;;;;;;;;;;5047571;28;20936;-58
2022/08/18 12:15:28;;;;;;;9.27;8.02;;;;;;;;;;5049157;28;20500;-58
2022/08/18 12:18:00;;;;;;;8.50;7.70;;;;;;;;;;5048511;28;20024;-58
2022/08/18 12:20:35;;;;;;;9.05;7.80;;;;;;;;;;5048135;28;20029;-58
2022/08/18 12:23:01;;;;;;;8.30;6.68;;;;;;;;;;5049524;28;20029;-58
2022/08/18 12:25:30;;;;;;;8.20;7.00;;;;;;;;;;5048020;28;20064;-58
2022/08/18 12:28:02;;;;;;;8.63;7.57;;;;;;;;;;5041020;28;20402;-59
2022/08/18 12:30:33;;;;;;;8.48;7.55;;;;;;;;;;5048437;28;20036;-59
2022/08/18 12:33:02;;;;;;;8.27;7.28;;;;;;;;;;5049541;28;20090;-58
2022/08/18 12:35:34;;;;;;;8.52;7.70;;;;;;;;;;5050184;28;20086;-58
2022/08/18 12:38:05;;;;;;;8.13;7.35;;;;;;;;;;5048670;28;20036;-58
2022/08/18 12:40:43;;;;;;;8.15;7.35;;;;;;;;;;5052230;28;20091;-58
2022/08/18 12:43:09;;;;;;;6.88;6.18;;;;;;;;;;5054431;28;20104;-58
2022/08/18 12:45:56;;;;;;;7.35;6.32;;;;;;;;;;5066357;28;20029;-58
2022/08/18 12:48:25;;;;;;;8.38;6.28;;;;;;;;;;5051762;28;20048;-58
2022/08/18 12:50:54;;;;;;;7.00;5.88;;;;;;;;;;5050839;28;20029;-59
2022/08/18 12:53:22;;;;;;;6.82;6.13;;;;;;;;;;5053759;28;20429;-58
2022/08/18 12:55:51;;;;;;;7.32;6.55;;;;;;;;;;5050182;28;20025;-58
2022/08/18 12:58:17;;;;;;;8.13;6.38;;;;;;;;;;5051535;28;20022;-58
2022/08/18 13:00:47;;;;;;;9.93;8.27;;;;;;;;;;5067887;28;20021;-58
2022/08/18 13:03:18;;;;;;;7.75;6.93;;;;;;;;;;5052051;28;20021;-58
2022/08/18 13:05:46;;;;;;;7.53;6.07;;;;;;;;;;5051001;28;20033;-58
2022/08/18 13:08:24;;;;;;;8.60;6.88;;;;;;;;;;5052993;28;20342;-58
2022/08/18 13:10:53;;;;;;;8.25;7.43;;;;;;;;;;5051463;28;20430;-58
2022/08/18 13:16:26;;;;;;;7.47;6.78;;;;;;;;;;5045373;28;20443;-58
2022/08/18 13:21:52;;;;;;;11.75;6.40;;;;;;;;;;5047231;28;20099;-58
2022/08/18 13:24:21;;;;;;;7.68;6.90;;;;;;;;;;5049000;28;20021;-58
2022/08/18 13:26:54;;;;;;;7.95;6.25;;;;;;;;;;5032069;28;20029;-58
2022/08/18 13:29:28;;;;;;;7.68;6.90;;;;;;;;;;5050301;28;20026;-58
2022/08/18 13:31:57;;;;;;;7.78;6.90;;;;;;;;;;5046066;28;20466;-58
2022/08/18 13:34:34;;;;;;;8.55;7.25;;;;;;;;;;5067648;28;20036;-58
2022/08/18 13:37:04;;;;;;;8.77;7.97;;;;;;;;;;5048256;28;20025;-58
2022/08/18 13:39:41;;;;;;;8.65;7.32;;;;;;;;;;5051834;28;20470;-58
2022/08/18 13:42:08;;;;;;;8.68;6.72;;;;;;;;;;5069078;28;20421;-58
2022/08/18 13:45:03;;;;;;;8.88;6.25;;;;;;;;;;5049664;28;20363;-58
2022/08/18 13:47:34;;;;;;;6.78;6.13;;;;;;;;;;5050296;28;20029;-58
2022/08/18 13:50:06;;;;;;;7.05;6.35;;;;;;;;;;5044209;28;20074;-58
2022/08/18 13:52:50;;;;;;;7.95;6.13;;;;;;;;;;5047944;28;20458;-58
2022/08/18 13:55:20;;;;;;;8.00;6.03;;;;;;;;;;5042647;28;20120;-58
2022/08/18 13:57:52;;;;;;;;;;;;;;;;;;5049146;28;20471;-59
2022/08/18 14:00:23;;;;;;;6.50;5.80;;;;;;;;;;5049232;28;19911;-58
2022/08/18 14:02:57;;;;;;;9.75;5.53;;;;;;;;;;5048476;28;20508;-58
2022/08/18 14:05:30;;;;;;;6.63;5.63;;;;;;;;;;5046481;28;20045;-58
2022/08/18 14:07:56;;;;;;;6.72;6.05;;;;;;;;;;5049757;28;20029;-58
2022/08/18 14:10:25;;;;;;;10.57;5.93;;;;;;;;;;5065085;28;20053;-58
2022/08/18 14:12:53;;;;;;;7.57;6.10;;;;;;;;;;5049603;28;20048;-58
2022/08/18 14:15:22;;;;;;;6.07;5.47;;;;;;;;;;5051002;28;20104;-58
2022/08/18 14:17:55;;;;;;;6.28;5.68;;;;;;;;;;5047307;28;20489;-58
2022/08/18 14:29:26;;;;;;;5.90;5.40;;;;;;;;;;5050152;28;20032;-58
2022/08/18 14:31:53;;;;;;;5.97;5.15;;;;;;;;;;5048064;28;20029;-59
2022/08/18 14:34:19;;;;;;;6.72;5.05;;;;;;;;;;5049381;28;20029;-58
2022/08/18 14:36:59;;;;;;;6.10;5.32;;;;;;;;;;5049769;28;20025;-58
2022/08/18 14:39:26;;;;;;;;;;;;;;;;;;5045069;28;20052;-58
2022/08/18 14:41:52;;;;;;;4.82;4.32;;;;;;;;;;5063224;28;19955;-58
2022/08/18 14:44:21;;;;;;;6.22;5.63;;;;;;;;;;5046253;28;20025;-58
2022/08/18 14:46:56;;;;;;;11.65;5.45;;;;;;;;;;5049085;28;20028;-59
2022/08/18 14:49:25;;;;;;;7.18;4.72;;;;;;;;;;5029701;28;20061;-59
2022/08/18 14:51:54;;;;;;;5.57;4.97;;;;;;;;;;5043394;28;20420;-59
2022/08/18 14:54:26;;;;;;;5.13;4.63;;;;;;;;;;5045774;28;20055;-59
2022/08/18 14:56:53;;;;;;;6.65;4.57;;;;;;;;;;5047519;28;20033;-58
2022/08/18 14:59:23;;;;;;;8.10;5.05;;;;;;;;;;5044463;28;20025;-58
2022/08/18 15:01:57;;;;;;;5.30;4.80;;;;;;;;;;5048709;28;20520;-58
2022/08/18 15:04:23;;;;;;;5.47;4.88;;;;;;;;;;5050426;28;20021;-58
2022/08/18 15:06:52;;;;;;;7.40;4.95;;;;;;;;;;5046565;28;20079;-58
2022/08/18 15:09:21;;;;;;;5.05;4.15;;;;;;;;;;5046200;28;20489;-59
2022/08/18 15:11:50;;;;;;;5.10;4.60;;;;;;;;;;5048942;28;20036;-58
2022/08/18 15:14:25;;;;;;;6.90;5.53;;;;;;;;;;5050552;28;20029;-58
2022/08/18 15:17:14;;;;;;;6.00;5.38;;;;;;;;;;5066688;28;20124;-58
2022/08/18 15:19:47;;;;;;;6.43;5.47;;;;;;;;;;5048622;28;20153;-58
2022/08/18 15:25:40;;;;;;;5.38;4.80;;;;;;;;;;5049666;28;20375;-58
2022/08/18 15:28:07;;;;;;;5.43;4.93;;;;;;;;;;5046086;28;20966;-59
2022/08/18 15:30:39;;;;;;;4.22;3.85;;;;;;;;;;5047899;28;20029;-59
2022/08/18 15:33:13;;;;;;;8.23;4.80;;;;;;;;;;5049758;28;20123;-59
2022/08/18 15:35:49;;;;;;;7.78;4.97;;;;;;;;;;5050645;28;20033;-59
2022/08/18 15:38:21;;;;;;;8.00;6.00;;;;;;;;;;5049454;28;20052;-59
2022/08/18 15:40:49;;;;;;;5.82;5.28;;;;;;;;;;5047021;28;20501;-59
2022/08/18 15:43:17;;;;;;;6.22;5.47;;;;;;;;;;5048609;28;20048;-59
2022/08/18 15:45:55;;;;;;;5.00;4.50;;;;;;;;;;5049729;28;20097;-59
2022/08/18 15:48:22;;;;;;;5.68;5.18;;;;;;;;;;5047402;28;20039;-59
2022/08/18 15:50:51;;;;;;;4.55;3.97;;;;;;;;;;5045917;28;20017;-59
2022/08/18 15:53:19;;;;;;;5.82;5.25;;;;;;;;;;5048136;28;20071;-59
2022/08/18 15:55:54;;;;;;;5.93;4.40;;;;;;;;;;5048789;28;20048;-58
2022/08/18 15:58:21;;;;;;;5.90;5.38;;;;;;;;;;5063703;28;20032;-59
2022/08/18 16:00:53;;;;;;;5.97;4.25;;;;;;;;;;5048875;28;20052;-59
2022/08/18 16:03:32;;;;;;;11.90;5.68;;;;;;;;;;5047616;28;20021;-59
2022/08/18 16:06:13;;;;;;;6.78;4.82;;;;;;;;;;5042294;28;20029;-59
2022/08/18 16:08:42;;;;;;;6.63;5.05;;;;;;;;;;5033492;28;20110;-59
2022/08/18 16:11:13;;;;;;;6.00;4.63;;;;;;;;;;5051655;28;20021;-59
2022/08/18 16:13:42;;;;;;;5.68;5.15;;;;;;;;;;5052148;28;20382;-59
2022/08/18 16:16:18;;;;;;;5.50;4.57;;;;;;;;;;5051002;28;20021;-59
2022/08/18 16:18:45;;;;;;;5.72;5.15;;;;;;;;;;5051064;28;20032;-59
2022/08/18 16:21:16;;;;;;;4.70;4.30;;;;;;;;;;5048751;28;20462;-59
2022/08/18 16:23:43;;;;;;;5.57;4.97;;;;;;;;;;5050094;28;20036;-59
2022/08/18 16:26:13;;;;;;;5.13;4.60;;;;;;;;;;5052704;28;20236;-59
2022/08/18 16:28:44;;;;;;;5.65;4.97;;;;;;;;;;5050167;28;20040;-59
2022/08/18 16:31:18;;;;;;;;;;;;;;;;;;5049163;28;20348;-59
2022/08/18 16:33:51;;;;;;;6.68;5.70;;;;;;;;;;5065717;28;20369;-59
2022/08/18 16:36:17;;;;;;;5.63;4.68;;;;;;;;;;5051113;28;20033;-59
2022/08/18 16:38:46;;;;;;;6.78;5.25;;;;;;;;;;5052528;28;20055;-59
2022/08/18 16:41:21;;;;;;;7.35;5.40;;;;;;;;;;5050458;28;20022;-59
2022/08/18 16:43:56;;;;;;;5.07;4.57;;;;;;;;;;5051366;28;20517;-59
2022/08/18 16:46:25;;;;;;;5.90;5.40;;;;;;;;;;5051004;28;20056;-59
2022/08/18 16:49:12;;;;;;;5.90;5.30;;;;;;;;;;5051052;28;20025;-59
2022/08/18 16:51:43;;;;;;;5.15;4.47;;;;;;;;;;5049765;28;20071;-59
2022/08/18 16:54:09;;;;;;;5.25;4.47;;;;;;;;;;5051197;28;20024;-59
2022/08/18 16:56:36;;;;;;;5.15;4.50;;;;;;;;;;5053439;28;20040;-59
2022/08/18 17:04:37;;;;;;;5.57;4.97;;;;;;;;;;5050130;28;20559;-59
2022/08/18 17:07:03;;;;;;;5.97;5.43;;;;;;;;;;5066697;28;20033;-59
2022/08/18 17:09:35;;;;;;;6.63;5.18;;;;;;;;;;5050981;28;20021;-59
2022/08/18 17:12:02;;;;;;;11.32;6.07;;;;;;;;;;5066131;28;20517;-59
2022/08/18 17:14:35;;;;;;;6.68;5.63;;;;;;;;;;5052718;28;20029;-59
2022/08/18 17:17:07;;;;;;;5.95;5.35;;;;;;;;;;5051496;28;20025;-59